Time;durP1;ratioP1;P1;durP2;ratioP2;P2;SDS_P1;SDS_P2;PMS_P1;PMS_P2;Temp;Humidity;BMP_temperature;BMP_pressure;BME280_temperature;BME280_humidity;BME280_pressure;Samples;Min_cycle;Max_cycle;Signal;HPM_P1;HPM_P2
2021/09/05 00:00:47;;;;;;;1.70;1.60;;;23.90;47.80;;;;;;5029483;28;20211;-46
2021/09/05 00:03:13;;;;;;;1.92;1.63;;;23.90;47.80;;;;;;5032145;28;20206;-42
2021/09/05 00:05:40;;;;;;;2.15;1.88;;;23.90;47.80;;;;;;5030098;28;20205;-46
2021/09/05 00:08:06;;;;;;;1.92;1.73;;;23.90;47.70;;;;;;5031202;28;20214;-45
2021/09/05 00:10:32;;;;;;;2.08;1.88;;;23.90;47.80;;;;;;5029407;28;20207;-42
2021/09/05 00:12:59;;;;;;;1.70;1.60;;;23.90;47.80;;;;;;5023463;28;20252;-41
2021/09/05 00:15:25;;;;;;;1.63;1.40;;;23.90;47.80;;;;;;5024713;28;20207;-42
2021/09/05 00:17:52;;;;;;;1.70;1.60;;;23.90;47.80;;;;;;5031367;28;20225;-43
2021/09/05 00:20:18;;;;;;;1.85;1.75;;;23.90;47.80;;;;;;5030209;28;20208;-42
2021/09/05 00:22:45;;;;;;;1.60;1.50;;;23.90;47.80;;;;;;5030083;28;20216;-48
2021/09/05 00:25:11;;;;;;;1.90;1.80;;;23.90;47.80;;;;;;5030863;28;20209;-44
2021/09/05 00:27:37;;;;;;;1.50;1.40;;;23.90;47.80;;;;;;5030946;28;20222;-49
2021/09/05 00:30:04;;;;;;;1.70;1.60;;;23.90;47.80;;;;;;5030193;28;20199;-39
2021/09/05 00:32:30;;;;;;;1.88;1.50;;;23.90;47.80;;;;;;5030235;28;20236;-40
2021/09/05 00:34:57;;;;;;;1.90;1.75;;;23.90;47.80;;;;;;5030481;28;20209;-43
2021/09/05 00:37:23;;;;;;;1.73;1.50;;;23.90;47.80;;;;;;5030663;28;20221;-40
2021/09/05 00:39:50;;;;;;;1.50;1.33;;;23.90;47.80;;;;;;5030228;28;20199;-41
2021/09/05 00:42:16;;;;;;;1.83;1.48;;;23.90;47.80;;;;;;5030282;28;20220;-43
2021/09/05 00:44:42;;;;;;;1.90;1.75;;;23.90;47.80;;;;;;5030412;28;20218;-40
2021/09/05 00:47:09;;;;;;;2.05;1.85;;;23.90;47.80;;;;;;5029747;28;20194;-40
2021/09/05 00:49:35;;;;;;;1.70;1.60;;;23.90;47.70;;;;;;5030604;28;20566;-40
2021/09/05 00:52:02;;;;;;;1.80;1.70;;;23.90;47.80;;;;;;5027456;28;20213;-43
2021/09/05 00:54:28;;;;;;;1.55;1.45;;;23.90;47.70;;;;;;5030671;28;20206;-46
2021/09/05 00:56:55;;;;;;;1.80;1.55;;;23.90;47.70;;;;;;5029385;28;20206;-43
2021/09/05 00:59:22;;;;;;;1.83;1.67;;;23.90;47.70;;;;;;5030544;28;20297;-43
2021/09/05 01:01:49;;;;;;;1.67;1.58;;;23.80;47.70;;;;;;5030874;28;20206;-41
2021/09/05 01:04:15;;;;;;;1.98;1.60;;;23.90;47.80;;;;;;5029010;28;20205;-45
2021/09/05 01:06:42;;;;;;;1.75;1.65;;;23.90;47.70;;;;;;5031304;28;20208;-46
2021/09/05 01:09:08;;;;;;;2.40;1.77;;;23.90;47.70;;;;;;5029226;28;20222;-42
2021/09/05 01:11:34;;;;;;;1.77;1.55;;;23.80;47.50;;;;;;5030458;28;20209;-40
2021/09/05 01:14:01;;;;;;;2.05;1.85;;;23.90;47.60;;;;;;5029382;28;20234;-45
2021/09/05 01:16:27;;;;;;;1.70;1.60;;;23.80;47.50;;;;;;5030701;28;20214;-41
2021/09/05 01:18:54;;;;;;;1.90;1.80;;;23.90;47.60;;;;;;5027548;28;20218;-48
2021/09/05 01:21:20;;;;;;;1.88;1.70;;;23.80;47.50;;;;;;5030726;28;20286;-46
2021/09/05 01:23:47;;;;;;;2.30;2.00;;;23.90;47.70;;;;;;5029342;28;20209;-42
2021/09/05 01:26:13;;;;;;;1.92;1.45;;;23.90;47.60;;;;;;5031121;28;20207;-44
2021/09/05 01:28:40;;;;;;;1.90;1.50;;;23.80;47.60;;;;;;5029257;28;20214;-50
2021/09/05 01:31:06;;;;;;;2.20;2.00;;;23.80;47.60;;;;;;5028625;28;20202;-41
2021/09/05 01:33:32;;;;;;;1.70;1.60;;;23.80;47.60;;;;;;5029278;28;20271;-45
2021/09/05 01:35:59;;;;;;;1.63;1.52;;;23.80;47.70;;;;;;5030064;28;20205;-44
2021/09/05 01:38:25;;;;;;;1.90;1.80;;;23.80;47.60;;;;;;5029792;28;20249;-39
2021/09/05 01:40:52;;;;;;;1.90;1.80;;;23.90;47.60;;;;;;5030309;28;20221;-42
2021/09/05 01:43:18;;;;;;;1.60;1.50;;;23.80;47.60;;;;;;5029232;28;20576;-39
2021/09/05 01:45:45;;;;;;;3.70;1.65;;;23.80;47.50;;;;;;5030359;28;20221;-40
2021/09/05 01:48:11;;;;;;;2.05;1.75;;;23.90;47.60;;;;;;5029847;28;20249;-42
2021/09/05 01:50:38;;;;;;;1.90;1.80;;;23.80;47.50;;;;;;5029371;28;20243;-43
2021/09/05 01:53:04;;;;;;;1.65;1.55;;;23.80;47.60;;;;;;5031407;28;20227;-41
2021/09/05 01:55:30;;;;;;;1.92;1.75;;;23.80;47.50;;;;;;5032256;28;20199;-46
2021/09/05 01:57:57;;;;;;;2.10;1.95;;;23.80;47.60;;;;;;5034528;28;20223;-43
2021/09/05 02:00:23;;;;;;;3.78;1.70;;;23.90;47.60;;;;;;5031057;28;20210;-46
2021/09/05 02:02:51;;;;;;;2.42;2.08;;;23.80;47.50;;;;;;5033417;28;20248;-43
2021/09/05 02:05:18;;;;;;;1.92;1.70;;;23.80;47.50;;;;;;5032179;28;20210;-44
2021/09/05 02:07:44;;;;;;;1.45;1.35;;;23.80;47.50;;;;;;5034325;28;20308;-41
2021/09/05 02:10:10;;;;;;;1.70;1.60;;;23.80;47.60;;;;;;5032081;28;20198;-45
2021/09/05 02:12:37;;;;;;;2.00;1.80;;;23.90;47.70;;;;;;5033961;28;20219;-39
2021/09/05 02:15:03;;;;;;;1.70;1.60;;;23.80;47.60;;;;;;5027912;28;20211;-44
2021/09/05 02:17:30;;;;;;;2.00;1.80;;;23.80;47.60;;;;;;5033068;28;20218;-46
2021/09/05 02:19:56;;;;;;;1.70;1.60;;;23.80;47.60;;;;;;5032173;28;20313;-47
2021/09/05 02:22:23;;;;;;;1.60;1.50;;;23.80;47.60;;;;;;5032274;28;20194;-44
2021/09/05 02:24:49;;;;;;;1.90;1.80;;;23.80;47.70;;;;;;5033287;28;20199;-45
2021/09/05 02:27:16;;;;;;;1.90;1.60;;;23.80;47.60;;;;;;5033388;28;20233;-39
2021/09/05 02:29:42;;;;;;;1.75;1.50;;;23.80;47.60;;;;;;5032742;28;20206;-40
2021/09/05 02:32:08;;;;;;;1.80;1.70;;;23.80;47.60;;;;;;5033561;28;20203;-42
2021/09/05 02:34:35;;;;;;;2.05;1.70;;;23.80;47.60;;;;;;5031998;28;20587;-40
2021/09/05 02:37:01;;;;;;;1.92;1.65;;;23.80;47.60;;;;;;5032985;28;20266;-42
2021/09/05 02:39:28;;;;;;;1.65;1.55;;;23.80;47.50;;;;;;5032313;28;20199;-43
2021/09/05 02:41:54;;;;;;;1.88;1.70;;;23.80;47.90;;;;;;5033572;28;20205;-45
2021/09/05 02:44:21;;;;;;;1.77;1.60;;;23.80;47.80;;;;;;5031862;28;20199;-41
2021/09/05 02:46:47;;;;;;;1.80;1.70;;;23.80;47.80;;;;;;5033409;28;20202;-47
2021/09/05 02:49:13;;;;;;;1.85;1.55;;;23.80;47.80;;;;;;5031946;28;20205;-46
2021/09/05 02:51:42;;;;;;;2.00;1.60;;;23.80;47.80;;;;;;5032996;28;20204;-41
2021/09/05 02:54:09;;;;;;;2.20;1.60;;;23.80;47.80;;;;;;5027901;28;20258;-44
2021/09/05 02:56:35;;;;;;;2.08;1.70;;;23.80;47.80;;;;;;5032457;28;20198;-48
2021/09/05 02:59:01;;;;;;;1.85;1.50;;;23.80;47.80;;;;;;5032013;28;20684;-46
2021/09/05 03:01:28;;;;;;;1.60;1.45;;;23.80;48.40;;;;;;5031392;28;20663;-47
2021/09/05 03:03:54;;;;;;;1.70;1.60;;;23.80;47.70;;;;;;5032920;28;20210;-50
2021/09/05 03:06:21;;;;;;;1.88;1.77;;;23.80;47.70;;;;;;5031743;28;20202;-49
2021/09/05 03:08:47;;;;;;;1.75;1.65;;;23.80;47.70;;;;;;5031605;28;20226;-41
2021/09/05 03:11:14;;;;;;;1.67;1.58;;;23.80;47.70;;;;;;5031335;28;20210;-40
2021/09/05 03:13:42;;;;;;;1.80;1.70;;;23.80;47.60;;;;;;5019218;28;20237;-42
2021/09/05 03:16:09;;;;;;;1.75;1.50;;;23.80;47.50;;;;;;5031221;28;20291;-43
2021/09/05 03:18:35;;;;;;;1.92;1.70;;;23.80;47.50;;;;;;5031578;28;20305;-45
2021/09/05 03:21:02;;;;;;;1.60;1.50;;;23.80;47.60;;;;;;5030403;28;20230;-46
2021/09/05 03:23:28;;;;;;;1.80;1.70;;;23.80;47.50;;;;;;5032692;28;20314;-44
2021/09/05 03:25:55;;;;;;;1.55;1.45;;;23.80;47.50;;;;;;5030419;28;20205;-47
2021/09/05 03:28:21;;;;;;;1.90;1.60;;;23.80;47.50;;;;;;5032341;28;20226;-47
2021/09/05 03:30:47;;;;;;;1.70;1.60;;;23.80;47.50;;;;;;5029524;28;20203;-44
2021/09/05 03:33:14;;;;;;;1.65;1.55;;;23.80;47.50;;;;;;5031307;28;20222;-47
2021/09/05 03:35:40;;;;;;;2.08;1.88;;;23.80;47.50;;;;;;5031396;28;20208;-48
2021/09/05 03:38:07;;;;;;;1.60;1.42;;;23.80;47.50;;;;;;5030730;28;20222;-42
2021/09/05 03:40:33;;;;;;;1.70;1.60;;;23.80;47.50;;;;;;5030352;28;20206;-46
2021/09/05 03:43:00;;;;;;;1.52;1.42;;;23.80;47.50;;;;;;5032590;28;20199;-44
2021/09/05 03:45:26;;;;;;;1.95;1.77;;;23.80;47.50;;;;;;5031468;28;20273;-46
2021/09/05 03:47:53;;;;;;;1.67;1.58;;;23.80;47.50;;;;;;5032412;28;20223;-47
2021/09/05 03:50:19;;;;;;;1.70;1.60;;;23.80;47.50;;;;;;5030777;28;20208;-46
2021/09/05 03:52:45;;;;;;;1.73;1.63;;;23.80;47.50;;;;;;5032103;28;20308;-44
2021/09/05 03:55:12;;;;;;;1.60;1.50;;;23.80;47.50;;;;;;5030611;28;20301;-44
2021/09/05 03:57:38;;;;;;;1.67;1.58;;;23.80;47.50;;;;;;5031807;28;20223;-45
2021/09/05 04:00:05;;;;;;;1.85;1.75;;;23.80;47.50;;;;;;5029554;28;20214;-46
2021/09/05 04:02:31;;;;;;;1.88;1.58;;;23.80;47.50;;;;;;5031954;28;20202;-48
2021/09/05 04:04:58;;;;;;;2.15;1.95;;;23.80;47.50;;;;;;5030480;28;20289;-44
2021/09/05 04:07:24;;;;;;;1.60;1.50;;;23.80;47.50;;;;;;5030834;28;20215;-47
2021/09/05 04:10:09;;;;;;;1.65;1.55;;;23.80;47.50;;;;;;5029438;28;20293;-46
2021/09/05 04:12:36;;;;;;;1.80;1.70;;;23.80;47.50;;;;;;5031629;28;20681;-42
2021/09/05 04:15:02;;;;;;;1.92;1.73;;;23.80;47.50;;;;;;5027705;28;20655;-40
2021/09/05 04:17:28;;;;;;;3.60;1.70;;;23.80;47.50;;;;;;5028555;28;20222;-48
2021/09/05 04:19:55;;;;;;;1.73;1.60;;;23.80;47.50;;;;;;5030160;28;20213;-40
2021/09/05 04:22:21;;;;;;;1.90;1.80;;;23.80;47.50;;;;;;5030487;28;20194;-45
2021/09/05 04:24:48;;;;;;;1.95;1.80;;;23.80;47.50;;;;;;5029732;28;20210;-46
2021/09/05 04:27:15;;;;;;;1.70;1.60;;;23.80;47.50;;;;;;5030109;28;20222;-46
2021/09/05 04:29:41;;;;;;;1.75;1.65;;;23.80;47.50;;;;;;5030286;28;20198;-46
2021/09/05 04:32:08;;;;;;;2.00;1.80;;;23.80;47.50;;;;;;5031022;28;20297;-49
2021/09/05 04:34:34;;;;;;;1.80;1.70;;;23.80;47.50;;;;;;5030351;28;20226;-45
2021/09/05 04:37:01;;;;;;;1.58;1.48;;;23.80;47.50;;;;;;5029061;28;20218;-49
2021/09/05 04:39:27;;;;;;;1.67;1.58;;;23.80;47.50;;;;;;5030108;28;20289;-41
2021/09/05 04:41:54;;;;;;;1.80;1.70;;;23.80;47.50;;;;;;5031254;28;20203;-49
2021/09/05 04:44:20;;;;;;;1.50;1.40;;;23.80;47.50;;;;;;5030338;28;20205;-45
2021/09/05 04:46:47;;;;;;;2.05;1.70;;;23.80;47.50;;;;;;5029767;28;20218;-43
2021/09/05 04:49:13;;;;;;;1.50;1.40;;;23.80;47.50;;;;;;5030404;28;20207;-40
2021/09/05 04:51:40;;;;;;;2.45;1.90;;;23.80;47.50;;;;;;5030328;28;20202;-42
2021/09/05 04:54:06;;;;;;;1.70;1.60;;;23.80;47.50;;;;;;5031336;28;20260;-42
2021/09/05 04:56:32;;;;;;;1.83;1.50;;;23.80;47.50;;;;;;5030246;28;20568;-41
2021/09/05 04:58:59;;;;;;;1.70;1.60;;;23.80;47.50;;;;;;5030219;28;20558;-41
2021/09/05 05:01:25;;;;;;;1.63;1.52;;;23.80;47.50;;;;;;5031248;28;20202;-40
2021/09/05 05:03:52;;;;;;;1.63;1.52;;;23.80;47.50;;;;;;5029608;28;20203;-49
2021/09/05 05:06:18;;;;;;;1.60;1.50;;;23.80;47.50;;;;;;5030216;28;20205;-49
2021/09/05 05:08:45;;;;;;;2.28;1.65;;;23.80;47.50;;;;;;5029018;28;20206;-49
2021/09/05 05:11:11;;;;;;;1.60;1.50;;;23.80;47.50;;;;;;5029963;28;20206;-48
2021/09/05 05:13:38;;;;;;;1.73;1.60;;;23.80;47.50;;;;;;5030693;28;20225;-47
2021/09/05 05:16:04;;;;;;;1.73;1.63;;;23.80;47.50;;;;;;5030040;28;20218;-47
2021/09/05 05:18:30;;;;;;;1.80;1.70;;;23.80;47.50;;;;;;5029311;28;20226;-45
2021/09/05 05:20:57;;;;;;;1.73;1.60;;;23.80;47.50;;;;;;5019454;28;20209;-44
2021/09/05 05:23:25;;;;;;;1.60;1.50;;;23.80;47.50;;;;;;5029966;28;20207;-48
2021/09/05 05:25:52;;;;;;;1.33;1.23;;;23.80;47.50;;;;;;5029703;28;20206;-43
2021/09/05 05:28:18;;;;;;;1.60;1.50;;;23.80;47.50;;;;;;5033524;28;20214;-41
2021/09/05 05:30:45;;;;;;;1.77;1.67;;;23.80;47.50;;;;;;5033947;28;20297;-41
2021/09/05 05:33:11;;;;;;;1.85;1.75;;;23.80;47.50;;;;;;5033115;28;20206;-46
2021/09/05 05:35:37;;;;;;;1.80;1.70;;;23.80;47.50;;;;;;5035128;28;20208;-47
2021/09/05 05:38:04;;;;;;;1.80;1.70;;;23.80;47.50;;;;;;5032222;28;20233;-47
2021/09/05 05:40:33;;;;;;;1.80;1.58;;;23.80;47.50;;;;;;5033250;28;20217;-44
2021/09/05 05:42:59;;;;;;;1.70;1.60;;;23.80;47.50;;;;;;5032821;28;20218;-46
2021/09/05 05:45:25;;;;;;;1.80;1.70;;;23.80;47.50;;;;;;5034663;28;20213;-46
2021/09/05 05:47:52;;;;;;;1.80;1.70;;;23.80;47.50;;;;;;5033221;28;20222;-50
2021/09/05 05:50:18;;;;;;;1.75;1.63;;;23.80;47.50;;;;;;5033151;28;20198;-45
2021/09/05 05:52:45;;;;;;;1.70;1.60;;;23.80;47.50;;;;;;5033807;28;20209;-44
2021/09/05 05:55:11;;;;;;;1.70;1.60;;;23.80;47.50;;;;;;5033832;28;20312;-40
2021/09/05 05:57:38;;;;;;;2.20;1.75;;;23.80;47.50;;;;;;5033112;28;20218;-43
2021/09/05 06:00:04;;;;;;;2.20;2.00;;;23.80;47.50;;;;;;5032768;28;20214;-42
2021/09/05 06:02:31;;;;;;;1.70;1.60;;;23.80;47.50;;;;;;5032446;28;20210;-44
2021/09/05 06:04:57;;;;;;;1.80;1.70;;;23.80;47.50;;;;;;5034463;28;20214;-47
2021/09/05 06:07:23;;;;;;;1.55;1.45;;;23.80;47.50;;;;;;5033099;28;20222;-40
2021/09/05 06:09:50;;;;;;;1.50;1.40;;;23.80;47.50;;;;;;5032835;28;20207;-40
2021/09/05 06:12:16;;;;;;;1.88;1.73;;;23.80;47.50;;;;;;5032413;28;20220;-41
2021/09/05 06:14:43;;;;;;;1.70;1.60;;;23.80;47.50;;;;;;5025116;28;20583;-39
2021/09/05 06:17:09;;;;;;;1.80;1.45;;;23.80;47.50;;;;;;5028371;28;20587;-42
2021/09/05 06:19:36;;;;;;;2.22;1.80;;;23.80;47.50;;;;;;5032662;28;20638;-43
2021/09/05 06:22:02;;;;;;;1.75;1.65;;;23.80;47.50;;;;;;5032253;28;20519;-42
2021/09/05 06:24:28;;;;;;;1.67;1.58;;;23.80;47.50;;;;;;5031925;28;20659;-44
2021/09/05 06:26:55;;;;;;;1.77;1.67;;;23.80;47.50;;;;;;5033639;28;20724;-47
2021/09/05 06:29:21;;;;;;;1.70;1.60;;;23.80;47.50;;;;;;5032349;28;20677;-42
2021/09/05 06:31:48;;;;;;;2.05;1.40;;;23.80;47.50;;;;;;5032560;28;20288;-40
2021/09/05 06:34:15;;;;;;;1.83;1.65;;;23.80;47.50;;;;;;5033447;28;20710;-43
2021/09/05 06:36:41;;;;;;;2.33;1.80;;;23.80;47.50;;;;;;5032019;28;20737;-40
2021/09/05 06:39:07;;;;;;;1.80;1.67;;;23.80;47.50;;;;;;5033253;28;20214;-42
2021/09/05 06:41:34;;;;;;;2.10;1.80;;;23.80;47.50;;;;;;5030962;28;20213;-44
2021/09/05 06:44:01;;;;;;;2.13;1.73;;;23.80;47.50;;;;;;5032090;28;20206;-48
2021/09/05 06:46:27;;;;;;;1.75;1.65;;;23.80;47.50;;;;;;5031101;28;20308;-48
2021/09/05 06:48:53;;;;;;;1.60;1.50;;;23.80;47.50;;;;;;5031642;28;20203;-43
2021/09/05 06:51:20;;;;;;;1.60;1.50;;;23.80;47.50;;;;;;5031505;28;20213;-44
2021/09/05 06:53:46;;;;;;;1.90;1.80;;;23.80;47.50;;;;;;5032389;28;20236;-46
2021/09/05 06:56:13;;;;;;;1.75;1.60;;;23.80;47.50;;;;;;5031395;28;20321;-46
2021/09/05 06:58:39;;;;;;;2.05;1.60;;;23.80;47.50;;;;;;5032045;28;20209;-44
2021/09/05 07:01:06;;;;;;;1.85;1.50;;;23.80;47.50;;;;;;5022985;28;20294;-48
2021/09/05 07:03:32;;;;;;;1.70;1.60;;;23.80;47.50;;;;;;5033205;28;20209;-47
2021/09/05 07:05:59;;;;;;;1.63;1.52;;;23.80;48.20;;;;;;5030480;28;20202;-43
2021/09/05 07:08:25;;;;;;;2.70;1.80;;;23.80;47.50;;;;;;5023492;28;21175;-41
2021/09/05 07:10:51;;;;;;;1.80;1.70;;;23.90;47.60;;;;;;5025346;28;20570;-41
2021/09/05 07:13:18;;;;;;;2.35;1.73;;;23.90;47.80;;;;;;5025223;28;20591;-40
2021/09/05 07:15:44;;;;;;;4.28;2.28;;;23.90;48.50;;;;;;5025450;28;20738;-42
2021/09/05 07:18:11;;;;;;;4.20;2.17;;;23.90;48.50;;;;;;5025485;28;20726;-40
2021/09/05 07:20:38;;;;;;;5.65;2.50;;;23.90;47.60;;;;;;5024664;28;20288;-40
2021/09/05 07:23:04;;;;;;;5.35;4.03;;;23.80;47.50;;;;;;5026241;28;20743;-42
2021/09/05 07:25:31;;;;;;;5.88;4.07;;;23.80;46.80;;;;;;5024715;28;20203;-48
2021/09/05 07:27:57;;;;;;;5.45;4.72;;;23.60;45.40;;;;;;5025962;28;20304;-44
2021/09/05 07:30:24;;;;;;;4.78;4.38;;;23.50;44.40;;;;;;5025740;28;20199;-42
2021/09/05 07:32:50;;;;;;;6.05;4.85;;;23.40;44.40;;;;;;5027066;28;20202;-43
2021/09/05 07:35:16;;;;;;;5.28;4.63;;;23.40;43.10;;;;;;5023986;28;20736;-42
2021/09/05 07:37:43;;;;;;;4.55;4.15;;;23.40;44.00;;;;;;5025065;28;20693;-41
2021/09/05 07:40:09;;;;;;;6.55;4.32;;;23.40;44.40;;;;;;5024689;28;20195;-41
2021/09/05 07:42:36;;;;;;;4.40;3.70;;;23.50;44.90;;;;;;5026216;28;20690;-41
2021/09/05 07:45:02;;;;;;;3.85;3.53;;;23.50;45.20;;;;;;5022001;28;20199;-40
2021/09/05 07:47:29;;;;;;;4.35;3.45;;;23.60;45.40;;;;;;5012373;28;20315;-41
2021/09/05 07:49:55;;;;;;;4.72;3.60;;;23.60;45.50;;;;;;5022259;28;20198;-46
2021/09/05 07:52:22;;;;;;;3.92;3.50;;;23.70;45.60;;;;;;5032461;28;20202;-43
2021/09/05 07:54:48;;;;;;;3.75;3.35;;;23.70;45.60;;;;;;5030240;28;20230;-41
2021/09/05 07:57:14;;;;;;;3.55;3.20;;;23.70;45.70;;;;;;5031982;28;20335;-45
2021/09/05 07:59:41;;;;;;;4.03;3.63;;;23.70;45.70;;;;;;5029605;28;20242;-42
2021/09/05 08:02:07;;;;;;;3.95;3.47;;;23.80;45.70;;;;;;5031181;28;20203;-45
2021/09/05 08:04:34;;;;;;;3.45;3.15;;;23.80;45.80;;;;;;5030300;28;20389;-44
2021/09/05 08:07:00;;;;;;;3.38;3.00;;;23.80;45.80;;;;;;5029218;28;20218;-47
2021/09/05 08:09:27;;;;;;;3.38;3.08;;;23.80;45.80;;;;;;5027732;28;20211;-41
2021/09/05 08:11:53;;;;;;;4.20;3.40;;;23.80;45.80;;;;;;5027191;28;20206;-40
2021/09/05 08:14:19;;;;;;;3.67;3.38;;;23.80;45.90;;;;;;5025784;28;20228;-42
2021/09/05 08:16:46;;;;;;;3.53;3.22;;;23.80;45.90;;;;;;5024992;28;20226;-40
2021/09/05 08:19:12;;;;;;;3.65;3.10;;;23.80;46.10;;;;;;5024250;28;20257;-42
2021/09/05 08:21:39;;;;;;;5.07;3.00;;;23.80;46.20;;;;;;5031008;28;20202;-47
2021/09/05 08:24:06;;;;;;;3.58;2.90;;;23.80;46.20;;;;;;5022316;28;20221;-50
2021/09/05 08:26:33;;;;;;;3.38;3.08;;;23.90;46.30;;;;;;5031582;28;20241;-43
2021/09/05 08:28:59;;;;;;;3.20;2.90;;;23.90;46.30;;;;;;5029758;28;20264;-47
2021/09/05 08:31:26;;;;;;;3.33;2.92;;;23.90;46.30;;;;;;5025639;28;20195;-50
2021/09/05 08:33:52;;;;;;;2.92;2.72;;;23.90;46.30;;;;;;5029729;28;20208;-49
2021/09/05 08:36:18;;;;;;;4.72;3.80;;;23.90;46.30;;;;;;5031239;28;20218;-47
2021/09/05 08:38:45;;;;;;;3.72;3.17;;;23.90;46.60;;;;;;5019585;28;20581;-42
2021/09/05 08:41:11;;;;;;;4.30;3.53;;;23.90;46.40;;;;;;5020883;28;20293;-41
2021/09/05 08:43:38;;;;;;;3.63;3.33;;;23.90;46.40;;;;;;5025342;28;20199;-43
2021/09/05 08:46:04;;;;;;;3.67;3.38;;;23.90;46.30;;;;;;5011518;28;20223;-42
2021/09/05 08:48:31;;;;;;;4.30;3.25;;;23.90;46.30;;;;;;5027179;28;20302;-40
2021/09/05 08:50:57;;;;;;;3.90;3.60;;;23.90;46.40;;;;;;5029846;28;20209;-43
2021/09/05 08:53:24;;;;;;;4.80;3.33;;;23.90;46.40;;;;;;5030712;28;20285;-42
2021/09/05 08:55:50;;;;;;;3.50;3.20;;;23.90;46.50;;;;;;5029542;28;20265;-41
2021/09/05 08:58:17;;;;;;;3.50;3.20;;;23.90;46.40;;;;;;5029274;28;20708;-41
2021/09/05 09:00:43;;;;;;;3.60;3.17;;;23.90;46.40;;;;;;5030461;28;20297;-42
2021/09/05 09:03:10;;;;;;;5.03;3.15;;;23.90;46.60;;;;;;5030428;28;20209;-45
2021/09/05 09:05:36;;;;;;;4.78;3.00;;;23.90;47.30;;;;;;5030241;28;20241;-42
2021/09/05 09:08:02;;;;;;;3.78;3.35;;;23.90;46.50;;;;;;5028682;28;20301;-42
2021/09/05 09:10:29;;;;;;;5.00;3.55;;;23.90;46.70;;;;;;5025106;28;20199;-43
2021/09/05 09:12:55;;;;;;;6.68;3.65;;;23.90;47.00;;;;;;5030184;28;20257;-43
2021/09/05 09:15:22;;;;;;;5.30;3.38;;;24.00;46.90;;;;;;5023921;28;20281;-44
2021/09/05 09:17:48;;;;;;;4.78;3.67;;;24.00;46.80;;;;;;5026858;28;20289;-41
2021/09/05 09:20:15;;;;;;;4.40;3.25;;;24.00;46.80;;;;;;5030309;28;20208;-40
2021/09/05 09:22:41;;;;;;;4.20;3.47;;;24.00;46.70;;;;;;5031042;28;20206;-47
2021/09/05 09:25:08;;;;;;;4.47;3.65;;;24.00;46.70;;;;;;5031190;28;20206;-40
2021/09/05 09:27:34;;;;;;;4.18;3.78;;;24.00;46.70;;;;;;5031369;28;20384;-42
2021/09/05 09:30:01;;;;;;;5.20;3.83;;;24.00;46.70;;;;;;5030281;28;20198;-41
2021/09/05 09:32:27;;;;;;;3.90;3.50;;;24.00;46.70;;;;;;5030726;28;20301;-44
2021/09/05 09:34:53;;;;;;;4.47;4.07;;;23.90;46.60;;;;;;5029956;28;20240;-46
2021/09/05 09:37:20;;;;;;;4.32;3.60;;;24.00;46.70;;;;;;5030789;28;20292;-40
2021/09/05 09:39:46;;;;;;;4.75;3.75;;;24.00;46.70;;;;;;5030090;28;20213;-45
2021/09/05 09:42:13;;;;;;;4.00;3.38;;;24.00;46.70;;;;;;5030813;28;20202;-44
2021/09/05 09:44:39;;;;;;;3.80;3.50;;;24.00;46.70;;;;;;5030455;28;20202;-43
2021/09/05 09:47:06;;;;;;;3.88;3.58;;;24.00;46.70;;;;;;5030585;28;20256;-40
2021/09/05 09:49:32;;;;;;;4.47;3.65;;;24.00;46.80;;;;;;5030184;28;20207;-40
2021/09/05 09:51:59;;;;;;;5.00;3.80;;;24.00;46.70;;;;;;5028538;28;20204;-43
2021/09/05 09:54:25;;;;;;;6.43;3.60;;;23.90;46.60;;;;;;5026217;28;20282;-40
2021/09/05 09:56:51;;;;;;;4.10;3.58;;;24.00;46.90;;;;;;5023767;28;20218;-40
2021/09/05 09:59:18;;;;;;;4.88;3.42;;;24.00;46.80;;;;;;5024428;28;20572;-43
2021/09/05 10:01:45;;;;;;;5.07;3.85;;;24.00;47.00;;;;;;5023690;28;20210;-39
2021/09/05 10:04:11;;;;;;;4.45;3.40;;;24.00;47.30;;;;;;5023232;28;20198;-42
2021/09/05 10:06:38;;;;;;;4.05;3.65;;;24.00;47.30;;;;;;5023286;28;20296;-38
2021/09/05 10:09:04;;;;;;;4.47;3.50;;;24.10;47.80;;;;;;5023295;28;20689;-41
2021/09/05 10:11:30;;;;;;;4.20;3.80;;;24.10;47.80;;;;;;5022760;28;20293;-39
2021/09/05 10:13:57;;;;;;;4.20;3.60;;;24.10;48.10;;;;;;5024425;28;20203;-40
2021/09/05 10:16:24;;;;;;;4.35;3.63;;;24.10;48.60;;;;;;5026530;28;20253;-39
2021/09/05 10:18:50;;;;;;;4.00;3.60;;;24.20;48.70;;;;;;5027840;28;20305;-45
2021/09/05 10:21:17;;;;;;;6.43;3.92;;;24.20;48.70;;;;;;5026879;28;20816;-43
2021/09/05 10:23:43;;;;;;;5.30;3.70;;;24.10;48.40;;;;;;5027126;28;20625;-43
2021/09/05 10:26:10;;;;;;;4.25;3.75;;;24.20;48.80;;;;;;5031929;28;20309;-42
2021/09/05 10:28:36;;;;;;;3.88;3.47;;;24.20;48.40;;;;;;5032940;28;20206;-38
2021/09/05 10:31:03;;;;;;;5.57;4.18;;;24.10;48.30;;;;;;5031971;28;20289;-43
2021/09/05 10:33:29;;;;;;;4.50;3.30;;;24.10;48.50;;;;;;5033054;28;20206;-43
2021/09/05 10:35:55;;;;;;;4.05;3.50;;;24.10;48.50;;;;;;5019054;28;20239;-46
2021/09/05 10:38:22;;;;;;;4.22;3.80;;;24.10;48.40;;;;;;5020275;28;20214;-42
2021/09/05 10:40:49;;;;;;;3.97;3.60;;;24.10;47.80;;;;;;5033094;28;20309;-45
2021/09/05 10:43:15;;;;;;;4.32;3.83;;;24.10;48.40;;;;;;5032722;28;20224;-40
2021/09/05 10:45:42;;;;;;;4.10;3.70;;;24.10;47.80;;;;;;5033102;28;20229;-43
2021/09/05 10:48:08;;;;;;;4.13;3.70;;;24.10;48.10;;;;;;5027569;28;20201;-44
2021/09/05 10:50:35;;;;;;;3.70;3.40;;;24.10;47.90;;;;;;5029743;28;20209;-47
2021/09/05 10:53:01;;;;;;;4.57;3.55;;;24.10;47.80;;;;;;5027303;28;20209;-41
2021/09/05 10:55:28;;;;;;;6.90;4.15;;;24.10;48.90;;;;;;5028130;28;20230;-48
2021/09/05 10:57:54;;;;;;;3.92;3.53;;;24.10;48.00;;;;;;5028835;28;20202;-48
2021/09/05 11:00:21;;;;;;;5.30;3.67;;;24.10;47.80;;;;;;5029550;28;20309;-48
2021/09/05 11:02:47;;;;;;;3.78;3.47;;;24.10;47.80;;;;;;5032403;28;20199;-44
2021/09/05 11:05:13;;;;;;;4.53;3.88;;;24.10;47.80;;;;;;5032958;28;20222;-43
2021/09/05 11:07:40;;;;;;;4.47;3.75;;;24.10;47.80;;;;;;5043830;22;20313;-43
2021/09/05 11:10:06;;;;;;;3.88;3.47;;;24.10;47.80;;;;;;5025972;28;20195;-47
2021/09/05 11:12:33;;;;;;;4.22;3.83;;;24.10;47.80;;;;;;5028833;28;20199;-47
2021/09/05 11:15:00;;;;;;;3.95;3.55;;;24.20;47.80;;;;;;5031005;28;20701;-45
2021/09/05 11:17:26;;;;;;;3.80;3.50;;;24.10;47.80;;;;;;5031495;28;20289;-47
2021/09/05 11:19:53;;;;;;;4.30;3.90;;;24.20;47.80;;;;;;5024960;28;20647;-48
2021/09/05 11:22:19;;;;;;;4.00;3.60;;;24.10;47.80;;;;;;5025949;28;20198;-49
2021/09/05 11:24:46;;;;;;;4.22;3.83;;;24.20;48.10;;;;;;5028269;28;20254;-47
2021/09/05 11:27:12;;;;;;;4.07;3.67;;;24.20;47.80;;;;;;5028917;28;20199;-44
2021/09/05 11:29:38;;;;;;;4.50;3.80;;;24.20;47.80;;;;;;5024684;28;20212;-47
2021/09/05 11:32:05;;;;;;;3.83;3.42;;;24.20;47.80;;;;;;5025370;28;20199;-44
2021/09/05 11:34:31;;;;;;;3.85;3.25;;;24.20;47.80;;;;;;5025601;28;20301;-47
2021/09/05 11:36:58;;;;;;;3.67;3.38;;;24.20;47.80;;;;;;5025470;28;20230;-44
2021/09/05 11:39:24;;;;;;;4.28;3.53;;;24.20;47.80;;;;;;5024062;28;20201;-44
2021/09/05 11:41:51;;;;;;;5.80;3.92;;;24.20;47.80;;;;;;5025873;28;20199;-43
2021/09/05 11:44:17;;;;;;;4.30;3.90;;;24.20;47.80;;;;;;5026222;28;20198;-47
2021/09/05 11:46:43;;;;;;;4.78;3.75;;;24.20;47.80;;;;;;5037263;28;20355;-48
2021/09/05 11:49:10;;;;;;;6.65;4.13;;;24.20;47.80;;;;;;5026792;28;20643;-43
2021/09/05 11:51:36;;;;;;;5.90;4.40;;;24.20;47.80;;;;;;5011925;28;20217;-48
2021/09/05 11:54:03;;;;;;;5.03;4.38;;;24.20;47.80;;;;;;5017221;28;20206;-46
2021/09/05 11:56:29;;;;;;;6.65;4.80;;;24.20;47.80;;;;;;5031128;28;20222;-42
2021/09/05 11:58:56;;;;;;;9.02;5.55;;;24.20;47.80;;;;;;5030122;28;20321;-43
2021/09/05 12:01:22;;;;;;;6.38;5.07;;;24.20;47.80;;;;;;5030271;28;20209;-42
2021/09/05 12:03:49;;;;;;;6.15;4.70;;;24.20;47.90;;;;;;5029987;28;20212;-42
2021/09/05 12:06:15;;;;;;;7.60;4.97;;;24.20;47.90;;;;;;5030123;28;20230;-42
2021/09/05 12:08:42;;;;;;;7.43;4.70;;;24.20;47.90;;;;;;5031116;28;20198;-42
2021/09/05 12:11:09;;;;;;;7.05;5.35;;;24.20;47.90;;;;;;5028596;28;20205;-49
2021/09/05 12:13:36;;;;;;;7.53;4.50;;;24.20;47.80;;;;;;5030928;28;20301;-47
2021/09/05 12:16:02;;;;;;;6.10;4.88;;;24.20;47.80;;;;;;5029866;28;20670;-50
2021/09/05 12:18:29;;;;;;;8.30;4.97;;;24.20;47.80;;;;;;5025254;28;20248;-50
2021/09/05 12:20:55;;;;;;;7.32;4.70;;;24.20;47.90;;;;;;5027074;28;20218;-42
2021/09/05 12:23:22;;;;;;;5.65;4.30;;;24.20;47.80;;;;;;5030323;28;20630;-47
2021/09/05 12:25:48;;;;;;;5.60;4.55;;;24.20;47.80;;;;;;5019838;28;20218;-47
2021/09/05 12:28:17;;;;;;;7.13;4.80;;;24.20;47.80;;;;;;5030756;28;20352;-46
2021/09/05 12:30:44;;;;;;;5.85;4.55;;;24.20;47.90;;;;;;5028106;28;20263;-47
2021/09/05 12:33:10;;;;;;;5.82;4.80;;;24.20;47.90;;;;;;5030914;28;20251;-50
2021/09/05 12:35:37;;;;;;;5.75;4.68;;;24.20;47.80;;;;;;5029334;28;20234;-50
2021/09/05 12:38:03;;;;;;;6.22;4.60;;;24.20;47.80;;;;;;5029162;28;20202;-43
2021/09/05 12:40:29;;;;;;;6.03;4.70;;;24.20;47.80;;;;;;5027874;28;20566;-51
2021/09/05 12:42:56;;;;;;;6.75;4.93;;;24.10;47.80;;;;;;5029986;28;20823;-44